createdAt,value
2022-08-30T00:00:03.231Z,91.66
2022-08-30T00:02:53.254Z,91.52
2022-08-30T00:05:43.081Z,90.74
2022-08-30T00:08:31.665Z,90.97
2022-08-30T00:11:22.485Z,90.80
2022-08-30T00:14:11.048Z,90.47
2022-08-30T00:16:59.557Z,90.76
2022-08-30T00:19:49.512Z,90.86
2022-08-30T00:22:38.198Z,90.90
2022-08-30T00:25:27.206Z,91.18
2022-08-30T00:28:16.882Z,91.30
2022-08-30T00:31:06.345Z,91.44
2022-08-30T00:33:54.914Z,91.19
2022-08-30T00:36:45.552Z,90.34
2022-08-30T00:39:34.092Z,90.52
2022-08-30T00:42:22.988Z,89.91
2022-08-30T00:45:13.595Z,90.13
2022-08-30T00:48:02.271Z,89.34
2022-08-30T00:50:54.356Z,88.32
2022-08-30T00:53:47.941Z,88.29
2022-08-30T00:56:36.591Z,88.57
2022-08-30T00:59:25.755Z,89.18
2022-08-30T01:02:14.562Z,89.29
2022-08-30T01:05:04.082Z,90.38
2022-08-30T01:07:52.760Z,90.67
2022-08-30T01:10:43.767Z,91.61
2022-08-30T01:13:32.687Z,91.85
2022-08-30T01:16:22.433Z,91.85
2022-08-30T01:19:17.803Z,91.68
2022-08-30T01:22:17.236Z,91.19
2022-08-30T01:25:08.857Z,91.31
2022-08-30T01:28:01.747Z,91.54
2022-08-30T01:30:50.646Z,91.80
2022-08-30T01:33:40.186Z,91.10
2022-08-30T01:36:28.999Z,90.62
2022-08-30T01:39:18.911Z,91.33
2022-08-30T01:42:08.917Z,91.23
2022-08-30T01:44:57.479Z,91.78
2022-08-30T01:47:46.007Z,91.78
2022-08-30T01:50:34.593Z,92.06
2022-08-30T01:53:24.352Z,92.88
2022-08-30T01:56:13.418Z,93.17
2022-08-30T01:59:03.450Z,92.66
2022-08-30T02:01:52.274Z,93.06
2022-08-30T02:04:40.798Z,93.13
2022-08-30T02:07:29.365Z,92.52
2022-08-30T02:10:17.928Z,92.72
2022-08-30T02:13:06.469Z,92.68
2022-08-30T02:16:01.852Z,92.44
2022-08-30T02:18:50.702Z,92.01
2022-08-30T02:21:39.165Z,92.73
2022-08-30T02:24:27.774Z,93.39
2022-08-30T02:27:16.360Z,94.28
2022-08-30T02:30:06.292Z,94.67
2022-08-30T02:32:56.149Z,95.48
2022-08-30T02:35:44.674Z,96.70
2022-08-30T02:38:33.257Z,97.26
2022-08-30T02:41:23.518Z,96.93
2022-08-30T02:44:12.170Z,97.00
2022-08-30T02:47:00.682Z,95.99
2022-08-30T02:49:50.580Z,96.09
2022-08-30T02:52:39.171Z,94.59
2022-08-30T02:55:28.732Z,94.06
2022-08-30T02:58:17.508Z,93.14
2022-08-30T03:01:06.772Z,92.78
2022-08-30T03:03:55.371Z,92.47
2022-08-30T03:06:45.339Z,91.94
2022-08-30T03:09:34.018Z,93.14
2022-08-30T03:12:22.521Z,93.35
2022-08-30T03:15:13.573Z,93.02
2022-08-30T03:18:02.543Z,92.55
2022-08-30T03:20:54.473Z,93.06
2022-08-30T03:23:45.177Z,93.45
2022-08-30T03:26:33.723Z,94.76
2022-08-30T03:29:22.895Z,95.67
2022-08-30T03:32:11.502Z,96.36
2022-08-30T03:35:00.649Z,96.63
2022-08-30T03:37:49.241Z,96.52
2022-08-30T03:40:46.121Z,97.21
2022-08-30T03:43:35.274Z,97.11
2022-08-30T03:46:28.726Z,96.80
2022-08-30T03:49:17.535Z,96.48
2022-08-30T03:52:06.399Z,96.81
2022-08-30T03:54:54.930Z,96.31
2022-08-30T03:57:44.844Z,97.13
2022-08-30T04:00:33.486Z,97.84
2022-08-30T04:03:25.775Z,99.67
2022-08-30T04:06:14.338Z,100.00
2022-08-30T04:09:02.894Z,100.00
2022-08-30T04:11:51.712Z,100.00
2022-08-30T04:14:41.648Z,100.00
2022-08-30T04:17:30.330Z,100.00
2022-08-30T04:20:18.954Z,100.00
2022-08-30T04:23:08.060Z,100.00
2022-08-30T04:25:57.109Z,100.00
2022-08-30T04:28:45.575Z,100.00
2022-08-30T04:31:36.106Z,100.00
2022-08-30T04:34:24.623Z,100.00
2022-08-30T04:37:13.341Z,100.00
2022-08-30T04:40:01.966Z,100.00
2022-08-30T04:42:54.053Z,100.00
2022-08-30T04:45:43.150Z,100.00
2022-08-30T04:48:33.131Z,100.00
2022-08-30T04:51:21.741Z,100.00
2022-08-30T04:54:10.313Z,98.63
2022-08-30T04:56:58.838Z,97.04
2022-08-30T04:59:47.328Z,95.16
2022-08-30T05:02:35.942Z,92.80
2022-08-30T05:05:41.651Z,91.60
2022-08-30T05:08:30.212Z,90.60
2022-08-30T05:11:18.965Z,89.57
2022-08-30T05:14:07.536Z,88.48
2022-08-30T05:16:56.174Z,88.83
2022-08-30T05:19:44.849Z,89.54
2022-08-30T05:22:36.944Z,90.63
2022-08-30T05:25:27.018Z,90.51
2022-08-30T05:28:15.760Z,89.72
2022-08-30T05:31:05.026Z,89.40
2022-08-30T05:34:03.301Z,89.25
2022-08-30T05:36:53.161Z,88.76
2022-08-30T05:39:50.778Z,88.89
2022-08-30T05:42:41.593Z,91.48
2022-08-30T05:45:30.192Z,92.99
2022-08-30T05:48:18.703Z,91.61
2022-08-30T05:51:09.615Z,91.79
2022-08-30T05:54:01.181Z,90.69
2022-08-30T05:56:53.828Z,90.80
2022-08-30T05:59:42.381Z,89.12
2022-08-30T06:02:30.893Z,87.84
2022-08-30T06:05:19.486Z,86.79
2022-08-30T06:08:07.975Z,85.15
2022-08-30T06:10:56.551Z,83.96
2022-08-30T06:13:47.005Z,83.28
2022-08-30T06:16:38.707Z,81.36
2022-08-30T06:19:27.220Z,80.22
2022-08-30T06:22:15.780Z,78.82
2022-08-30T06:25:04.926Z,78.19
2022-08-30T06:27:56.461Z,77.21
2022-08-30T06:30:47.377Z,75.87
2022-08-30T06:33:36.236Z,74.24
2022-08-30T06:36:26.173Z,72.88
2022-08-30T06:39:14.746Z,72.73
2022-08-30T06:42:03.266Z,71.50
2022-08-30T06:44:51.973Z,70.29
2022-08-30T06:47:41.898Z,69.85
2022-08-30T06:50:33.401Z,69.17
2022-08-30T06:53:22.604Z,67.46
2022-08-30T06:56:16.488Z,66.61
2022-08-30T06:59:05.597Z,66.24
2022-08-30T07:01:54.277Z,67.11
2022-08-30T07:04:44.245Z,66.67
2022-08-30T07:07:32.785Z,67.02
2022-08-30T07:10:21.720Z,66.55
2022-08-30T07:13:10.857Z,65.69
2022-08-30T07:15:59.495Z,65.62
2022-08-30T07:18:55.654Z,65.32
2022-08-30T07:21:45.596Z,64.08
2022-08-30T07:24:34.146Z,63.27
2022-08-30T07:27:22.635Z,61.77
2022-08-30T07:30:12.182Z,62.81
2022-08-30T07:33:00.714Z,62.86
2022-08-30T07:35:49.271Z,61.48
2022-08-30T07:38:39.352Z,61.23
2022-08-30T07:41:29.428Z,60.02
2022-08-30T07:44:18.196Z,59.31
2022-08-30T07:47:06.835Z,58.71
2022-08-30T07:49:55.412Z,58.73
2022-08-30T07:52:44.331Z,57.83
2022-08-30T07:55:34.219Z,57.53
2022-08-30T07:58:22.796Z,56.28
2022-08-30T08:01:13.218Z,57.11
2022-08-30T08:04:01.844Z,57.41
2022-08-30T08:06:50.598Z,57.78
2022-08-30T08:09:39.578Z,57.58
2022-08-30T08:12:29.551Z,57.72
2022-08-30T08:15:18.083Z,58.25
2022-08-30T08:18:07.077Z,57.33
2022-08-30T08:20:56.952Z,57.73
2022-08-30T08:23:46.078Z,57.76
2022-08-30T08:26:35.941Z,55.65
2022-08-30T08:29:26.939Z,54.46
2022-08-30T08:32:15.530Z,53.65
2022-08-30T08:35:04.414Z,52.25
2022-08-30T08:37:53.389Z,51.92
2022-08-30T08:40:48.695Z,51.41
2022-08-30T08:43:38.144Z,51.13
2022-08-30T08:46:31.587Z,50.99
2022-08-30T08:49:21.362Z,50.88
2022-08-30T08:52:30.891Z,50.41
2022-08-30T08:55:22.211Z,50.35
2022-08-30T08:58:18.694Z,50.68
2022-08-30T09:01:09.537Z,49.93
2022-08-30T09:04:00.958Z,49.79
2022-08-30T09:06:53.785Z,47.11
2022-08-30T09:09:43.567Z,47.18
2022-08-30T09:12:32.335Z,47.49
2022-08-30T09:15:26.503Z,48.04
2022-08-30T09:18:19.532Z,47.86
2022-08-30T09:21:10.364Z,47.38
2022-08-30T09:24:01.291Z,47.99
2022-08-30T09:26:50.402Z,46.39
2022-08-30T09:29:51.250Z,46.82
2022-08-30T09:32:41.571Z,47.01
2022-08-30T09:35:36.845Z,46.77
2022-08-30T09:38:30.663Z,46.99
2022-08-30T09:41:31.956Z,47.13
2022-08-30T09:44:22.171Z,46.81
2022-08-30T09:47:24.063Z,46.57
2022-08-30T09:50:14.720Z,45.68
2022-08-30T09:53:10.432Z,45.75
2022-08-30T09:56:06.503Z,45.57
2022-08-30T09:59:10.560Z,45.34
2022-08-30T10:02:03.180Z,45.14
2022-08-30T10:04:59.321Z,45.48
2022-08-30T10:07:53.594Z,45.14
2022-08-30T10:10:50.086Z,45.26
2022-08-30T10:13:56.369Z,44.81
2022-08-30T10:16:51.131Z,43.93
2022-08-30T10:19:49.352Z,43.07
2022-08-30T10:22:41.855Z,43.42
2022-08-30T10:25:34.472Z,43.46
2022-08-30T10:28:30.024Z,43.43
2022-08-30T10:31:27.150Z,43.03
2022-08-30T10:34:19.192Z,43.50
2022-08-30T10:37:11.184Z,42.76
2022-08-30T10:40:22.995Z,42.20
2022-08-30T10:43:21.844Z,42.82
2022-08-30T10:46:15.084Z,41.74
2022-08-30T10:49:10.107Z,41.55
2022-08-30T10:52:04.765Z,40.94
2022-08-30T10:54:56.802Z,41.19
2022-08-30T10:57:46.380Z,42.44
2022-08-30T11:00:42.202Z,42.03
2022-08-30T11:03:59.365Z,41.79
2022-08-30T11:06:56.625Z,41.18
2022-08-30T11:10:11.804Z,40.98
2022-08-30T11:13:02.814Z,40.04
2022-08-30T11:15:57.822Z,39.91
2022-08-30T11:18:51.086Z,40.40
2022-08-30T11:21:42.436Z,39.97
2022-08-30T11:25:10.237Z,40.52
2022-08-30T11:27:59.071Z,39.75
2022-08-30T11:30:52.458Z,39.94
2022-08-30T11:33:47.102Z,39.36
2022-08-30T11:37:09.881Z,39.29
2022-08-30T11:40:03.962Z,38.97
2022-08-30T11:42:54.322Z,40.05
2022-08-30T11:45:55.500Z,40.67
2022-08-30T11:48:54.412Z,40.91
2022-08-30T11:52:23.808Z,39.93
2022-08-30T11:55:46.373Z,40.75
2022-08-30T11:58:44.767Z,40.33
2022-08-30T12:01:56.391Z,40.27
2022-08-30T12:04:46.851Z,40.67
2022-08-30T12:07:58.930Z,41.07
2022-08-30T12:10:51.233Z,41.06
2022-08-30T12:13:54.247Z,41.08
2022-08-30T12:16:59.520Z,40.96
2022-08-30T12:19:50.558Z,39.66
2022-08-30T12:22:40.512Z,38.91
2022-08-30T12:25:31.880Z,39.52
2022-08-30T12:28:25.917Z,39.01
2022-08-30T12:38:32.865Z,38.57
2022-08-30T12:41:22.618Z,38.75
2022-08-30T12:44:16.518Z,38.94
2022-08-30T12:47:06.802Z,38.80
2022-08-30T12:49:56.035Z,39.45
2022-08-30T12:52:46.095Z,39.55
2022-08-30T12:55:37.173Z,39.08
2022-08-30T12:58:42.503Z,38.61
2022-08-30T13:01:35.607Z,39.23
2022-08-30T13:04:28.905Z,39.69
2022-08-30T13:07:33.238Z,39.19
2022-08-30T13:10:21.804Z,37.94
2022-08-30T13:13:10.398Z,38.57
2022-08-30T13:16:09.025Z,38.91
2022-08-30T13:19:19.371Z,38.45
2022-08-30T13:22:08.518Z,38.86
2022-08-30T13:24:57.635Z,38.53
2022-08-30T13:27:46.278Z,38.57
2022-08-30T13:30:37.048Z,39.04
2022-08-30T13:33:25.668Z,38.74
2022-08-30T13:36:15.938Z,38.94
2022-08-30T13:39:06.047Z,38.07
2022-08-30T13:41:54.996Z,37.90
2022-08-30T13:45:03.727Z,38.91
2022-08-30T13:47:52.494Z,38.61
2022-08-30T13:50:41.403Z,39.03
2022-08-30T13:56:41.165Z,38.31
2022-08-30T13:59:33.205Z,38.44
2022-08-30T14:02:21.873Z,37.83
2022-08-30T14:05:20.520Z,38.21
2022-08-30T14:11:31.562Z,38.99
2022-08-30T14:14:32.459Z,37.86
2022-08-30T14:17:30.854Z,38.01
2022-08-30T14:20:20.521Z,38.05
2022-08-30T14:23:10.392Z,38.16
2022-08-30T14:26:00.127Z,37.59
2022-08-30T14:28:51.776Z,38.18
2022-08-30T14:31:41.148Z,37.88
2022-08-30T14:34:30.163Z,38.53
2022-08-30T14:37:21.475Z,37.88
2022-08-30T14:40:10.883Z,37.93
2022-08-30T14:42:59.496Z,38.22
2022-08-30T14:45:49.596Z,37.93
2022-08-30T14:48:39.872Z,38.04
2022-08-30T14:51:29.808Z,37.70
2022-08-30T14:54:20.892Z,37.36
2022-08-30T14:57:09.392Z,37.12
2022-08-30T14:59:57.918Z,37.67
2022-08-30T15:02:47.792Z,37.74
2022-08-30T15:05:36.867Z,38.29
2022-08-30T15:08:25.489Z,37.59
2022-08-30T15:11:15.460Z,37.59
2022-08-30T15:14:03.993Z,37.28
2022-08-30T15:16:54.662Z,37.51
2022-08-30T15:19:44.676Z,37.64
2022-08-30T15:22:33.296Z,38.85
2022-08-30T15:25:23.207Z,38.07
2022-08-30T15:28:11.972Z,38.09
2022-08-30T15:31:03.025Z,39.03
2022-08-30T15:33:54.926Z,38.23
2022-08-30T15:36:47.419Z,38.45
2022-08-30T15:39:36.815Z,38.81
2022-08-30T15:42:25.466Z,38.79
2022-08-30T15:45:14.077Z,38.28
2022-08-30T15:48:06.593Z,39.00
2022-08-30T15:50:58.205Z,38.51
2022-08-30T15:53:48.268Z,38.82
2022-08-30T15:56:37.061Z,38.90
2022-08-30T15:59:25.663Z,38.54
2022-08-30T16:02:14.219Z,39.72
2022-08-30T16:05:05.826Z,40.24
2022-08-30T16:07:54.381Z,40.09
2022-08-30T16:10:44.294Z,39.43
2022-08-30T16:13:36.545Z,40.33
2022-08-30T16:16:25.336Z,39.81
2022-08-30T16:19:14.090Z,39.96
2022-08-30T16:22:02.667Z,40.47
2022-08-30T16:24:51.449Z,40.07
2022-08-30T16:27:43.027Z,40.46
2022-08-30T16:30:31.895Z,41.08
2022-08-30T16:33:20.618Z,40.50
2022-08-30T16:36:10.901Z,41.02
2022-08-30T16:39:00.191Z,41.43
2022-08-30T16:41:49.085Z,41.69
2022-08-30T16:44:40.216Z,41.97
2022-08-30T16:47:29.241Z,41.31
2022-08-30T16:50:21.408Z,40.88
2022-08-30T16:53:10.744Z,41.47
2022-08-30T16:55:59.326Z,40.84
2022-08-30T16:58:49.214Z,41.74
2022-08-30T17:01:41.101Z,42.17
2022-08-30T17:04:29.777Z,42.47
2022-08-30T17:07:22.342Z,43.08
2022-08-30T17:10:11.319Z,43.36
2022-08-30T17:13:02.225Z,43.51
2022-08-30T17:15:51.107Z,43.89
2022-08-30T17:18:41.192Z,43.77
2022-08-30T17:21:31.072Z,43.85
2022-08-30T17:24:20.491Z,43.82
2022-08-30T17:27:09.168Z,44.32
2022-08-30T17:29:57.703Z,43.75
2022-08-30T17:32:46.396Z,44.42
2022-08-30T17:35:39.337Z,44.44
2022-08-30T17:38:27.916Z,44.73
2022-08-30T17:41:16.468Z,44.83
2022-08-30T17:44:05.334Z,44.83
2022-08-30T17:46:54.931Z,45.10
2022-08-30T17:49:43.568Z,45.42
2022-08-30T17:52:33.923Z,45.57
2022-08-30T17:55:22.523Z,45.73
2022-08-30T17:58:11.125Z,46.26
2022-08-30T18:01:11.780Z,47.14
2022-08-30T18:04:01.892Z,47.81
2022-08-30T18:06:51.458Z,47.73
2022-08-30T18:09:42.125Z,47.88
2022-08-30T18:12:31.284Z,48.26
2022-08-30T18:15:22.515Z,48.42
2022-08-30T18:18:11.611Z,49.38
2022-08-30T18:21:01.341Z,49.64
2022-08-30T18:23:50.802Z,49.09
2022-08-30T18:26:43.086Z,48.84
2022-08-30T18:29:32.093Z,49.85
2022-08-30T18:32:20.829Z,50.57
2022-08-30T18:35:10.866Z,51.33
2022-08-30T18:37:59.458Z,51.74
2022-08-30T18:40:49.515Z,51.92
2022-08-30T18:43:39.604Z,51.86
2022-08-30T18:46:28.188Z,51.92
2022-08-30T18:49:16.946Z,51.94
2022-08-30T18:52:07.437Z,51.84
2022-08-30T18:54:56.091Z,52.41
2022-08-30T18:57:48.240Z,53.31
2022-08-30T19:00:38.193Z,53.71
2022-08-30T19:03:26.757Z,53.97
2022-08-30T19:06:22.294Z,54.10
2022-08-30T19:09:11.805Z,54.24
2022-08-30T19:12:00.410Z,54.69
2022-08-30T19:14:49.028Z,54.74
2022-08-30T19:17:39.125Z,55.09
2022-08-30T19:20:27.837Z,56.04
2022-08-30T19:23:16.433Z,57.04
2022-08-30T19:26:05.881Z,57.50
2022-08-30T19:28:54.479Z,57.63
2022-08-30T19:31:43.672Z,57.88
2022-08-30T19:34:33.996Z,57.98
2022-08-30T19:37:22.603Z,58.86
2022-08-30T19:40:14.995Z,59.19
2022-08-30T19:43:05.148Z,59.29
2022-08-30T19:45:55.509Z,58.40
2022-08-30T19:48:44.113Z,58.81
2022-08-30T19:51:34.085Z,58.68
2022-08-30T19:54:24.105Z,58.96
2022-08-30T19:57:12.868Z,59.65
2022-08-30T20:00:03.438Z,60.20
2022-08-30T20:02:52.177Z,60.61
2022-08-30T20:05:40.782Z,60.46
2022-08-30T20:08:30.762Z,60.66
2022-08-30T20:11:21.323Z,61.75
2022-08-30T20:14:13.631Z,62.11
2022-08-30T20:17:02.599Z,62.19
2022-08-30T20:19:51.193Z,62.08
2022-08-30T20:22:40.564Z,61.72
2022-08-30T20:25:40.582Z,60.09
2022-08-30T20:28:29.216Z,60.81
2022-08-30T20:31:17.758Z,61.33
2022-08-30T20:34:06.339Z,61.80
2022-08-30T20:36:55.402Z,61.52
2022-08-30T20:39:44.143Z,62.40
2022-08-30T20:42:34.015Z,62.42
2022-08-30T20:45:22.758Z,62.01
2022-08-30T20:48:13.463Z,61.92
2022-08-30T20:51:03.789Z,61.68
2022-08-30T20:53:53.359Z,61.68
2022-08-30T20:56:42.093Z,61.34
2022-08-30T20:59:32.366Z,61.52
2022-08-30T21:02:20.956Z,62.09
2022-08-30T21:05:10.904Z,61.13
2022-08-30T21:07:59.403Z,63.61
2022-08-30T21:10:49.212Z,63.60
2022-08-30T21:13:38.007Z,64.29
2022-08-30T21:16:28.566Z,64.10
2022-08-30T21:19:18.092Z,63.25
2022-08-30T21:22:06.672Z,63.50
2022-08-30T21:24:55.193Z,63.61
2022-08-30T21:27:44.010Z,63.19
2022-08-30T21:30:32.621Z,63.45
2022-08-30T21:33:22.560Z,64.49
2022-08-30T21:36:29.604Z,64.61
2022-08-30T21:39:20.920Z,64.53
2022-08-30T21:42:11.576Z,64.87
2022-08-30T21:45:00.260Z,64.99
2022-08-30T21:47:48.806Z,65.37
2022-08-30T21:50:41.295Z,66.05
2022-08-30T21:53:30.319Z,67.40
2022-08-30T21:56:21.976Z,67.89
2022-08-30T21:59:11.303Z,67.86
2022-08-30T22:02:00.782Z,69.13
2022-08-30T22:04:49.532Z,69.49
2022-08-30T22:07:39.752Z,69.85
2022-08-30T22:10:32.878Z,69.75
2022-08-30T22:13:21.888Z,69.61
2022-08-30T22:16:10.784Z,69.18
2022-08-30T22:18:59.624Z,68.75
2022-08-30T22:21:48.320Z,69.01
2022-08-30T22:24:39.441Z,68.92
2022-08-30T22:27:28.003Z,68.34
2022-08-30T22:30:17.647Z,67.54
2022-08-30T22:33:06.967Z,69.09
2022-08-30T22:35:55.739Z,69.45
2022-08-30T22:38:44.467Z,69.07
2022-08-30T22:41:35.222Z,67.95
2022-08-30T22:44:23.767Z,64.43
2022-08-30T22:47:12.309Z,63.34
2022-08-30T22:50:00.867Z,63.37
2022-08-30T22:52:49.725Z,63.22
2022-08-30T22:55:41.003Z,64.97
2022-08-30T22:58:30.943Z,66.23
2022-08-30T23:01:22.400Z,64.97
2022-08-30T23:04:11.844Z,59.68
2022-08-30T23:07:00.443Z,57.28
2022-08-30T23:09:48.945Z,60.47
2022-08-30T23:12:37.908Z,64.70
2022-08-30T23:15:29.048Z,70.62
2022-08-30T23:18:17.628Z,78.26
2022-08-30T23:21:07.452Z,86.64
2022-08-30T23:24:17.761Z,93.29
2022-08-30T23:27:23.871Z,97.86
2022-08-30T23:30:31.060Z,100.00
2022-08-30T23:33:38.729Z,100.00
2022-08-30T23:36:44.850Z,100.00
2022-08-30T23:39:50.669Z,100.00
2022-08-30T23:42:56.897Z,100.00
2022-08-30T23:46:03.184Z,100.00
2022-08-30T23:49:10.464Z,100.00
2022-08-30T23:52:16.469Z,100.00
2022-08-30T23:55:23.669Z,100.00
2022-08-30T23:58:29.889Z,100.00
